createdAt,value
2023-01-02T00:02:04.435Z,101008.39
2023-01-02T00:04:33.949Z,101000.58
2023-01-02T00:07:03.791Z,100998.82
2023-01-02T00:09:33.139Z,101002.31
2023-01-02T00:12:03.717Z,100999.70
2023-01-02T00:14:33.976Z,100985.78
2023-01-02T00:17:04.490Z,100985.80
2023-01-02T00:19:35.695Z,100990.16
2023-01-02T00:22:05.958Z,100987.53
2023-01-02T00:24:35.847Z,100992.75
2023-01-02T00:27:05.460Z,100989.30
2023-01-02T00:29:35.107Z,100982.33
2023-01-02T00:32:07.436Z,100981.48
2023-01-02T00:34:36.707Z,100985.83
2023-01-02T00:37:06.440Z,100985.83
2023-01-02T00:39:36.073Z,100994.52
2023-01-02T00:42:05.846Z,100998.84
2023-01-02T00:44:35.562Z,100999.73
2023-01-02T00:47:05.687Z,101004.06
2023-01-02T00:49:34.997Z,101005.81
2023-01-02T00:52:05.300Z,101010.16
2023-01-02T00:54:37.988Z,101008.41
2023-01-02T00:57:07.818Z,101010.16
2023-01-02T00:59:37.728Z,101004.06
2023-01-02T01:02:07.275Z,101005.80
2023-01-02T01:04:37.964Z,101014.52
2023-01-02T01:07:07.408Z,101014.52
2023-01-02T01:09:37.107Z,101012.76
2023-01-02T01:12:07.096Z,101008.41
2023-01-02T01:14:36.368Z,101011.02
2023-01-02T01:17:06.075Z,101005.80
2023-01-02T01:19:38.484Z,101007.55
2023-01-02T01:22:10.805Z,101002.33
2023-01-02T01:24:40.853Z,101003.22
2023-01-02T01:27:10.692Z,100997.11
2023-01-02T01:29:42.045Z,101004.07
2023-01-02T01:32:12.155Z,100991.90
2023-01-02T01:34:42.037Z,100987.57
2023-01-02T01:37:12.890Z,100982.36
2023-01-02T01:39:42.742Z,100972.78
2023-01-02T01:42:17.272Z,100973.66
2023-01-02T01:44:50.121Z,100975.38
2023-01-02T01:47:26.592Z,100966.69
2023-01-02T01:50:05.599Z,100971.89
2023-01-02T01:52:40.050Z,100969.30
2023-01-02T01:55:14.568Z,100964.09
2023-01-02T01:57:49.730Z,100951.05
2023-01-02T02:00:19.551Z,100945.84
2023-01-02T02:02:54.470Z,100944.09
2023-01-02T02:05:28.842Z,100939.75
2023-01-02T02:08:04.756Z,100951.91
2023-01-02T02:10:34.342Z,100944.98
2023-01-02T02:13:03.711Z,100944.98
2023-01-02T02:15:46.636Z,100940.62
2023-01-02T02:18:26.375Z,100942.37
2023-01-02T02:21:00.874Z,100940.62
2023-01-02T02:24:01.534Z,100938.01
2023-01-02T02:27:10.129Z,100944.08
2023-01-02T02:30:00.181Z,100941.47
2023-01-02T02:32:40.757Z,100938.86
2023-01-02T02:35:19.539Z,100935.39
2023-01-02T02:37:55.148Z,100938.00
2023-01-02T02:40:34.466Z,100928.44
2023-01-02T02:43:17.893Z,100938.86
2023-01-02T02:45:55.420Z,100954.52
2023-01-02T02:48:31.660Z,100954.54
2023-01-02T02:51:05.776Z,100960.62
2023-01-02T02:53:38.444Z,100957.16
2023-01-02T02:56:11.935Z,100958.89
2023-01-02T02:58:43.328Z,100962.38
2023-01-02T03:01:17.485Z,100954.56
2023-01-02T03:03:49.075Z,100958.91
2023-01-02T03:06:35.948Z,100965.84
2023-01-02T03:09:13.218Z,100951.95
2023-01-02T03:11:55.135Z,100951.95
2023-01-02T03:14:33.151Z,100955.41
2023-01-02T03:17:05.919Z,100954.56
2023-01-02T03:19:38.441Z,100963.23
2023-01-02T03:22:13.165Z,100962.37
2023-01-02T03:24:51.441Z,100961.49
2023-01-02T03:27:26.448Z,100961.50
2023-01-02T03:30:01.709Z,100965.85
2023-01-02T03:32:35.556Z,100951.08
2023-01-02T03:35:10.636Z,100955.42
2023-01-02T03:37:44.982Z,100953.68
2023-01-02T03:40:19.638Z,100945.87
2023-01-02T03:42:55.214Z,100946.74
2023-01-02T03:45:27.627Z,100935.44
2023-01-02T03:48:02.708Z,100944.12
2023-01-02T03:50:37.042Z,100950.23
2023-01-02T03:53:06.933Z,100961.52
2023-01-02T03:55:39.931Z,100964.13
2023-01-02T03:58:16.742Z,100960.67
2023-01-02T04:00:56.167Z,100955.45
2023-01-02T04:03:30.720Z,100951.09
2023-01-02T04:06:05.261Z,100952.83
2023-01-02T04:08:39.037Z,100959.79
2023-01-02T04:11:09.155Z,100957.17
2023-01-02T04:13:42.093Z,100955.44
2023-01-02T04:16:17.039Z,100954.56
2023-01-02T04:18:54.631Z,100957.17
2023-01-02T04:21:29.236Z,100959.78
2023-01-02T04:24:02.949Z,100960.66
2023-01-02T04:26:35.702Z,100965.87
2023-01-02T04:29:05.080Z,100977.17
2023-01-02T04:31:39.617Z,100975.41
2023-01-02T04:34:12.938Z,100970.20
2023-01-02T04:36:42.544Z,100978.87
2023-01-02T04:39:11.780Z,100982.36
2023-01-02T04:41:41.392Z,100983.20
2023-01-02T04:44:10.407Z,100972.78
2023-01-02T04:46:39.943Z,100974.52
2023-01-02T04:49:10.312Z,100972.80
2023-01-02T04:51:39.410Z,100969.34
2023-01-02T04:54:11.409Z,100959.76
2023-01-02T04:56:40.524Z,100948.47
2023-01-02T04:59:10.127Z,100947.62
2023-01-02T05:01:39.585Z,100920.70
2023-01-02T05:04:08.903Z,100931.09
2023-01-02T05:06:38.155Z,100927.64
2023-01-02T05:09:07.223Z,100937.20
2023-01-02T05:11:36.250Z,100930.23
2023-01-02T05:14:07.580Z,100923.28
2023-01-02T05:16:38.010Z,100917.23
2023-01-02T05:19:07.169Z,100911.15
2023-01-02T05:21:54.346Z,100905.92
2023-01-02T05:24:25.443Z,100904.18
2023-01-02T05:26:55.057Z,100904.18
2023-01-02T05:29:24.778Z,100896.38
2023-01-02T05:31:54.506Z,100892.03
2023-01-02T05:34:23.633Z,100882.48
2023-01-02T05:36:53.552Z,100884.21
2023-01-02T05:39:23.069Z,100879.91
2023-01-02T05:41:53.150Z,100883.38
2023-01-02T05:44:23.247Z,100883.36
2023-01-02T05:46:54.866Z,100892.03
2023-01-02T05:49:24.228Z,100875.52
2023-01-02T05:51:54.330Z,100877.28
2023-01-02T05:54:24.057Z,100872.94
2023-01-02T05:56:56.350Z,100872.92
2023-01-02T05:59:27.710Z,100872.91
2023-01-02T06:01:57.107Z,100877.25
2023-01-02T06:04:27.051Z,100871.16
2023-01-02T06:06:56.247Z,100872.02
2023-01-02T06:09:25.706Z,100870.30
2023-01-02T06:11:57.117Z,100862.47
2023-01-02T06:14:26.921Z,100867.69
2023-01-02T06:16:56.507Z,100859.84
2023-01-02T06:19:25.527Z,100862.42
2023-01-02T06:21:54.503Z,100865.05
2023-01-02T06:24:23.489Z,100871.94
2023-01-02T06:26:52.612Z,100882.36
2023-01-02T06:29:21.820Z,100878.00
2023-01-02T06:31:51.794Z,100879.72
2023-01-02T06:34:20.921Z,100869.30
2023-01-02T06:36:49.844Z,100870.17
2023-01-02T06:39:20.082Z,100864.09
2023-01-02T06:41:49.148Z,100851.08
2023-01-02T06:44:19.310Z,100851.91
2023-01-02T06:46:48.153Z,100870.09
2023-01-02T06:49:18.061Z,100880.48
2023-01-02T06:51:46.991Z,100869.20
2023-01-02T06:54:16.766Z,100869.20
2023-01-02T06:56:45.571Z,100879.58
2023-01-02T06:59:14.563Z,100881.30
2023-01-02T07:01:44.464Z,100880.44
2023-01-02T07:04:16.655Z,100876.10
2023-01-02T07:06:45.759Z,100872.64
2023-01-02T07:09:14.648Z,100868.30
2023-01-02T07:11:44.222Z,100861.39
2023-01-02T07:14:13.041Z,100852.72
2023-01-02T07:16:42.491Z,100846.69
2023-01-02T07:19:11.852Z,100849.30
2023-01-02T07:21:40.717Z,100840.64
2023-01-02T07:24:13.089Z,100845.85
2023-01-02T07:26:42.118Z,100851.94
2023-01-02T07:29:11.146Z,100851.06
2023-01-02T07:31:40.316Z,100850.23
2023-01-02T07:34:09.197Z,100837.22
2023-01-02T07:36:38.015Z,100830.28
2023-01-02T07:39:07.043Z,100826.84
2023-01-02T07:41:36.188Z,100837.25
2023-01-02T07:44:14.774Z,100826.00
2023-01-02T07:46:44.432Z,100816.47
2023-01-02T07:49:13.799Z,100813.88
2023-01-02T07:51:42.705Z,100802.66
2023-01-02T07:54:11.581Z,100801.77
2023-01-02T07:56:40.582Z,100808.72
2023-01-02T07:59:09.698Z,100808.72
2023-01-02T08:01:39.359Z,100814.80
2023-01-02T08:04:08.406Z,100827.83
2023-01-02T08:06:40.418Z,100833.02
2023-01-02T08:09:09.584Z,100832.18
2023-01-02T08:11:38.455Z,100824.36
2023-01-02T08:14:07.574Z,100825.22
2023-01-02T08:16:36.878Z,100820.02
2023-01-02T08:19:06.503Z,100821.72
2023-01-02T08:21:35.356Z,100821.72
2023-01-02T08:24:07.117Z,100827.77
2023-01-02T08:26:36.381Z,100822.55
2023-01-02T08:29:05.301Z,100829.48
2023-01-02T08:31:39.990Z,100831.23
2023-01-02T08:34:14.421Z,100829.48
2023-01-02T08:36:45.005Z,100829.42
2023-01-02T08:39:14.751Z,100829.41
2023-01-02T08:41:44.452Z,100827.64
2023-01-02T08:44:13.344Z,100831.92
2023-01-02T08:46:43.059Z,100820.59
2023-01-02T08:49:12.684Z,100820.53
2023-01-02T08:51:41.521Z,100820.47
2023-01-02T08:54:10.442Z,100812.62
2023-01-02T08:56:40.865Z,100813.47
2023-01-02T08:59:11.770Z,100809.09
2023-01-02T09:01:42.473Z,100797.77
2023-01-02T09:04:13.163Z,100801.20
2023-01-02T09:06:43.701Z,100800.38
2023-01-02T09:09:13.910Z,100799.50
2023-01-02T09:11:45.916Z,100806.42
2023-01-02T09:14:14.832Z,100798.60
2023-01-02T09:16:47.483Z,100802.92
2023-01-02T09:19:19.137Z,100810.75
2023-01-02T09:21:48.364Z,100811.56
2023-01-02T09:24:19.838Z,100812.41
2023-01-02T09:26:48.695Z,100808.00
2023-01-02T09:29:18.578Z,100803.58
2023-01-02T09:31:47.893Z,100797.39
2023-01-02T09:34:17.929Z,100796.42
2023-01-02T09:36:47.301Z,100797.19
2023-01-02T09:39:17.212Z,100786.63
2023-01-02T09:41:50.092Z,100787.39
2023-01-02T09:44:23.217Z,100792.48
2023-01-02T09:46:56.307Z,100789.73
2023-01-02T09:49:28.290Z,100780.85
2023-01-02T09:51:57.595Z,100776.38
2023-01-02T09:54:29.676Z,100780.63
2023-01-02T09:57:18.667Z,100773.61
2023-01-02T09:59:56.139Z,100764.02
2023-01-02T10:02:43.502Z,100763.99
2023-01-02T10:05:33.344Z,100751.63
2023-01-02T10:08:10.984Z,100749.70
2023-01-02T10:10:42.631Z,100746.14
2023-01-02T10:13:20.535Z,100729.63
2023-01-02T10:15:51.913Z,100735.74
2023-01-02T10:18:24.856Z,100739.28
2023-01-02T10:20:57.873Z,100734.05
2023-01-02T10:23:30.258Z,100733.16
2023-01-02T10:26:03.519Z,100728.77
2023-01-02T10:28:43.827Z,100731.35
2023-01-02T10:31:20.415Z,100735.67
2023-01-02T10:33:53.961Z,100721.70
2023-01-02T10:36:29.073Z,100709.45
2023-01-02T10:39:01.050Z,100715.53
2023-01-02T10:41:31.478Z,100714.58
2023-01-02T10:44:02.845Z,100716.30
2023-01-02T10:46:36.142Z,100712.80
2023-01-02T10:49:07.841Z,100717.16
2023-01-02T10:51:42.705Z,100715.50
2023-01-02T10:54:11.740Z,100719.88
2023-01-02T10:56:43.699Z,100726.89
2023-01-02T10:59:21.745Z,100719.08
2023-01-02T11:01:53.871Z,100720.92
2023-01-02T11:04:24.992Z,100707.87
2023-01-02T11:06:57.269Z,100707.91
2023-01-02T11:09:28.800Z,100709.68
2023-01-02T11:12:00.250Z,100700.10
2023-01-02T11:14:33.338Z,100702.72
2023-01-02T11:17:08.466Z,100710.53
2023-01-02T11:19:42.769Z,100712.22
2023-01-02T11:22:13.664Z,100701.75
2023-01-02T11:24:59.832Z,100702.61
2023-01-02T11:27:34.940Z,100686.06
2023-01-02T11:30:06.547Z,100690.44
2023-01-02T11:32:39.940Z,100694.79
2023-01-02T11:35:33.955Z,100688.67
2023-01-02T11:38:03.129Z,100673.86
2023-01-02T11:40:33.382Z,100681.67
2023-01-02T11:43:40.478Z,100686.90
2023-01-02T11:46:22.880Z,100674.66
2023-01-02T11:48:59.180Z,100672.05
2023-01-02T11:51:29.736Z,100667.69
2023-01-02T11:54:00.567Z,100667.70
2023-01-02T11:56:33.670Z,100674.70
2023-01-02T11:59:06.480Z,100666.81
2023-01-02T12:01:51.657Z,100671.12
2023-01-02T12:04:22.130Z,100678.89
2023-01-02T12:07:18.701Z,100680.55
2023-01-02T12:09:56.810Z,100665.64
2023-01-02T12:12:44.308Z,100667.33
2023-01-02T12:15:53.997Z,100673.33
2023-01-02T12:18:32.986Z,100654.07
2023-01-02T12:21:12.233Z,100650.48
2023-01-02T12:24:07.569Z,100649.41
2023-01-02T12:26:43.505Z,100655.31
2023-01-02T12:29:46.727Z,100652.56
2023-01-02T12:32:55.201Z,100637.58
2023-01-02T12:35:40.752Z,100635.70
2023-01-02T12:38:19.540Z,100633.83
2023-01-02T12:41:04.072Z,100628.39
2023-01-02T12:44:01.832Z,100620.37
2023-01-02T12:46:50.825Z,100622.79
2023-01-02T12:49:42.209Z,100625.33
2023-01-02T12:52:24.917Z,100621.72
2023-01-02T12:55:11.035Z,100617.31
2023-01-02T12:57:52.287Z,100617.25
2023-01-02T13:00:35.499Z,100617.20
2023-01-02T13:03:37.481Z,100615.41
2023-01-02T13:06:45.108Z,100608.38
2023-01-02T13:09:10.711Z,100605.65
2023-01-02T13:11:43.403Z,100603.86
2023-01-02T13:14:17.916Z,100601.19
2023-01-02T13:16:55.268Z,100609.05
2023-01-02T13:19:34.133Z,100615.20
2023-01-02T13:22:11.735Z,100609.16
2023-01-02T13:24:41.040Z,100606.61
2023-01-02T13:27:11.296Z,100605.77
2023-01-02T13:29:45.090Z,100610.23
2023-01-02T13:32:20.598Z,100612.06
2023-01-02T13:34:52.734Z,100610.38
2023-01-02T13:37:24.564Z,100606.97
2023-01-02T13:39:55.769Z,100604.41
2023-01-02T13:42:46.812Z,100593.97
2023-01-02T13:45:20.177Z,100590.48
2023-01-02T13:47:53.029Z,100592.27
2023-01-02T13:50:27.518Z,100594.01
2023-01-02T13:53:22.830Z,100599.25
2023-01-02T13:56:13.405Z,100603.64
2023-01-02T13:58:49.589Z,100601.92
2023-01-02T14:02:06.558Z,100606.31
2023-01-02T14:04:40.388Z,100599.45
2023-01-02T14:07:41.030Z,100606.47
2023-01-02T14:10:40.645Z,100600.44
2023-01-02T14:13:22.417Z,100610.10
2023-01-02T14:16:32.613Z,100605.85
2023-01-02T14:19:24.720Z,100602.52
2023-01-02T14:22:10.310Z,100589.53
2023-01-02T14:24:43.320Z,100589.63
2023-01-02T14:27:28.402Z,100584.53
2023-01-02T14:30:00.766Z,100588.98
2023-01-02T14:32:38.788Z,100586.46
2023-01-02T14:35:27.243Z,100582.20
2023-01-02T14:38:11.640Z,100582.35
2023-01-02T14:40:42.762Z,100579.86
2023-01-02T14:43:33.537Z,100580.84
2023-01-02T14:46:14.826Z,100573.98
2023-01-02T14:48:53.848Z,100578.45
2023-01-02T14:51:31.109Z,100575.08
2023-01-02T14:54:07.706Z,100581.30
2023-01-02T14:56:40.475Z,100577.92
2023-01-02T14:59:18.798Z,100571.03
2023-01-02T15:01:50.813Z,100567.62
2023-01-02T15:04:26.440Z,100566.86
2023-01-02T15:07:10.217Z,100582.64
2023-01-02T15:09:45.160Z,100595.77
2023-01-02T15:12:43.443Z,100589.80
2023-01-02T15:15:13.707Z,100588.18
2023-01-02T15:17:44.017Z,100578.69
2023-01-02T15:20:21.373Z,100576.18
2023-01-02T15:22:53.126Z,100587.56
2023-01-02T15:25:33.594Z,100585.02
2023-01-02T15:28:03.638Z,100599.05
2023-01-02T15:30:38.230Z,100599.11
2023-01-02T15:33:27.852Z,100601.83
2023-01-02T15:36:02.225Z,100597.55
2023-01-02T15:38:32.791Z,100600.22
2023-01-02T15:41:02.885Z,100602.94
2023-01-02T15:43:52.658Z,100602.14
2023-01-02T15:46:26.452Z,100601.33
2023-01-02T15:48:59.064Z,100608.34
2023-01-02T15:51:41.464Z,100616.23
2023-01-02T15:54:14.748Z,100624.98
2023-01-02T15:56:46.157Z,100623.25
2023-01-02T15:59:29.176Z,100612.86
2023-01-02T16:01:58.964Z,100612.89
2023-01-02T16:04:30.732Z,100609.42
2023-01-02T16:07:12.224Z,100610.34
2023-01-02T16:09:48.252Z,100610.39
2023-01-02T16:12:23.462Z,100610.44
2023-01-02T16:14:56.077Z,100599.15
2023-01-02T16:17:28.664Z,100592.22
2023-01-02T16:20:00.866Z,100593.07
2023-01-02T16:22:36.350Z,100580.05
2023-01-02T16:25:12.996Z,100587.00
2023-01-02T16:27:52.114Z,100587.88
2023-01-02T16:30:37.907Z,100600.93
2023-01-02T16:33:22.821Z,100607.06
2023-01-02T16:36:00.525Z,100588.78
2023-01-02T16:38:31.274Z,100575.77
2023-01-02T16:41:11.243Z,100576.67
2023-01-02T16:43:55.128Z,100588.86
2023-01-02T16:46:26.977Z,100586.31
2023-01-02T16:49:05.222Z,100581.97
2023-01-02T16:51:34.827Z,100573.28
2023-01-02T16:54:04.374Z,100561.98
2023-01-02T16:56:33.944Z,100556.80
2023-01-02T16:59:03.851Z,100556.80
2023-01-02T17:01:37.710Z,100569.84
2023-01-02T17:04:07.481Z,100573.36
2023-01-02T17:06:36.931Z,100585.55
2023-01-02T17:09:06.269Z,100595.14
2023-01-02T17:11:37.296Z,100585.58
2023-01-02T17:14:06.548Z,100588.19
2023-01-02T17:16:37.155Z,100590.83
2023-01-02T17:19:06.174Z,100587.33
2023-01-02T17:21:35.472Z,100577.77
2023-01-02T17:24:05.889Z,100577.77
2023-01-02T17:26:36.287Z,100564.75
2023-01-02T17:29:05.938Z,100572.57
2023-01-02T17:31:37.447Z,100576.05
2023-01-02T17:34:06.545Z,100579.56
2023-01-02T17:36:35.980Z,100571.77
2023-01-02T17:39:05.505Z,100567.45
2023-01-02T17:41:35.750Z,100567.47
2023-01-02T17:44:05.620Z,100570.98
2023-01-02T17:47:09.322Z,100574.48
2023-01-02T17:49:30.323Z,100567.59
2023-01-02T17:52:03.000Z,100576.28
2023-01-02T17:54:34.136Z,100581.54
2023-01-02T17:57:04.062Z,100583.32
2023-01-02T17:59:33.342Z,100576.36
2023-01-02T18:02:02.927Z,100578.11
2023-01-02T18:04:32.249Z,100574.68
2023-01-02T18:07:01.390Z,100590.34
2023-01-02T18:09:31.568Z,100591.23
2023-01-02T18:12:01.252Z,100583.41
2023-01-02T18:14:30.416Z,100579.95
2023-01-02T18:17:02.188Z,100582.56
2023-01-02T18:19:34.105Z,100585.16
2023-01-02T18:22:08.731Z,100583.45
2023-01-02T18:24:37.950Z,100575.63
2023-01-02T18:27:21.035Z,100584.32
2023-01-02T18:29:58.681Z,100585.20
2023-01-02T18:32:35.892Z,100586.07
2023-01-02T18:35:54.944Z,100582.63
2023-01-02T18:38:18.121Z,100574.80
2023-01-02T18:40:47.346Z,100581.77
2023-01-02T18:43:22.872Z,100579.17
2023-01-02T18:45:54.756Z,100574.85
2023-01-02T18:48:24.818Z,100569.64
2023-01-02T18:50:58.906Z,100567.91
2023-01-02T18:53:30.039Z,100558.34
2023-01-02T18:56:07.152Z,100558.39
2023-01-02T18:58:42.894Z,100561.00
2023-01-02T19:01:31.940Z,100566.21
2023-01-02T19:04:24.497Z,100558.38
2023-01-02T19:06:59.957Z,100555.77
2023-01-02T19:09:32.605Z,100544.50
2023-01-02T19:12:38.383Z,100544.50
2023-01-02T19:15:35.930Z,100559.30
2023-01-02T19:18:22.864Z,100560.16
2023-01-02T19:20:55.842Z,100548.00
2023-01-02T19:23:29.683Z,100562.79
2023-01-02T19:26:12.599Z,100568.02
2023-01-02T19:28:55.899Z,100564.53
2023-01-02T19:31:29.821Z,100568.90
2023-01-02T19:34:01.304Z,100568.86
2023-01-02T19:36:39.622Z,100570.59
2023-01-02T19:39:25.780Z,100577.55
2023-01-02T19:42:13.234Z,100574.91
2023-01-02T19:44:42.217Z,100567.92
2023-01-02T19:47:11.810Z,100572.25
2023-01-02T19:49:41.299Z,100564.38
2023-01-02T19:52:11.625Z,100577.38
2023-01-02T19:54:41.001Z,100566.93
2023-01-02T19:57:11.053Z,100563.43
2023-01-02T19:59:43.871Z,100577.30
2023-01-02T20:02:14.344Z,100562.49
2023-01-02T20:04:51.696Z,100569.42
2023-01-02T20:07:26.395Z,100567.65
2023-01-02T20:09:55.321Z,100578.89
2023-01-02T20:12:33.581Z,100570.17
2023-01-02T20:15:06.116Z,100572.73
2023-01-02T20:17:37.147Z,100582.27
2023-01-02T20:20:09.351Z,100583.13
2023-01-02T20:22:38.466Z,100591.78
2023-01-02T20:25:09.253Z,100589.15
2023-01-02T20:27:38.248Z,100593.49
2023-01-02T20:30:09.559Z,100592.59
2023-01-02T20:32:39.008Z,100589.98
2023-01-02T20:35:10.454Z,100589.08
2023-01-02T20:37:39.667Z,100590.81
2023-01-02T20:40:10.647Z,100594.26
2023-01-02T20:42:39.585Z,100592.51
2023-01-02T20:45:10.794Z,100593.33
2023-01-02T20:47:39.721Z,100591.58
2023-01-02T20:50:09.844Z,100592.43
2023-01-02T20:52:39.341Z,100589.79
2023-01-02T20:55:09.810Z,100583.70
2023-01-02T20:57:38.955Z,100583.70
2023-01-02T21:00:10.349Z,100589.80
2023-01-02T21:02:39.493Z,100592.43
2023-01-02T21:05:09.677Z,100602.89
2023-01-02T21:07:39.571Z,100609.90
2023-01-02T21:10:10.600Z,100605.55
2023-01-02T21:12:58.227Z,100615.98
2023-01-02T21:15:44.302Z,100618.60
2023-01-02T21:18:17.366Z,100625.58
2023-01-02T21:20:47.661Z,100615.13
2023-01-02T21:23:17.707Z,100607.36
2023-01-02T21:25:47.017Z,100604.73
2023-01-02T21:28:17.636Z,100605.64
2023-01-02T21:30:47.127Z,100607.41
2023-01-02T21:33:18.013Z,100604.81
2023-01-02T21:35:47.789Z,100606.55
2023-01-02T21:38:18.216Z,100600.48
2023-01-02T21:40:47.689Z,100599.63
2023-01-02T21:43:17.535Z,100609.22
2023-01-02T21:45:46.950Z,100608.33
2023-01-02T21:48:16.050Z,100606.61
2023-01-02T21:50:45.821Z,100598.78
2023-01-02T21:53:16.619Z,100605.73
2023-01-02T21:55:45.901Z,100607.45
2023-01-02T21:58:15.293Z,100616.16
2023-01-02T22:00:45.135Z,100604.82
2023-01-02T22:03:14.485Z,100599.60
2023-01-02T22:05:43.525Z,100598.73
2023-01-02T22:08:12.484Z,100594.39
2023-01-02T22:10:41.354Z,100610.89
2023-01-02T22:13:10.434Z,100609.17
2023-01-02T22:15:39.874Z,100608.28
2023-01-02T22:18:11.332Z,100607.44
2023-01-02T22:20:40.340Z,100608.31
2023-01-02T22:23:09.524Z,100606.58
2023-01-02T22:25:38.772Z,100622.23
2023-01-02T22:28:08.331Z,100620.52
2023-01-02T22:30:37.932Z,100619.69
2023-01-02T22:33:07.681Z,100628.38
2023-01-02T22:35:37.866Z,100631.89
2023-01-02T22:38:06.866Z,100633.64
2023-01-02T22:40:39.235Z,100631.95
2023-01-02T22:43:12.420Z,100636.30
2023-01-02T22:45:45.215Z,100629.40
2023-01-02T22:48:21.997Z,100644.16
2023-01-02T22:50:54.896Z,100635.48
2023-01-02T22:53:27.020Z,100633.78
2023-01-02T22:55:56.517Z,100638.11
2023-01-02T22:58:25.731Z,100641.59
2023-01-02T23:00:59.494Z,100639.86
2023-01-02T23:03:33.667Z,100650.29
2023-01-02T23:06:03.859Z,100642.48
2023-01-02T23:08:33.246Z,100644.23
2023-01-02T23:11:02.890Z,100644.23
2023-01-02T23:13:33.444Z,100656.41
2023-01-02T23:16:21.287Z,100654.67
2023-01-02T23:19:09.607Z,100662.52
2023-01-02T23:21:40.055Z,100658.18
2023-01-02T23:24:10.566Z,100664.27
2023-01-02T23:26:43.024Z,100659.92
2023-01-02T23:29:12.853Z,100655.59
2023-01-02T23:31:43.806Z,100657.34
2023-01-02T23:34:14.838Z,100664.28
2023-01-02T23:36:44.455Z,100659.95
2023-01-02T23:39:22.061Z,100665.14
2023-01-02T23:41:51.895Z,100661.66
2023-01-02T23:44:23.379Z,100664.28
2023-01-02T23:46:53.208Z,100665.98
2023-01-02T23:49:23.085Z,100667.72
2023-01-02T23:51:53.181Z,100664.24
2023-01-02T23:54:22.548Z,100665.97
2023-01-02T23:56:52.005Z,100653.83
2023-01-02T23:59:23.111Z,100655.55
